createdAt,value
2022-09-23T00:01:03.791Z,94131.00
2022-09-23T00:03:31.961Z,94119.72
2022-09-23T00:06:07.114Z,94131.41
2022-09-23T00:08:33.850Z,94133.16
2022-09-23T00:11:14.903Z,94131.63
2022-09-23T00:13:43.164Z,94127.41
2022-09-23T00:16:16.833Z,94126.94
2022-09-23T00:18:43.648Z,94131.16
2022-09-23T00:21:13.306Z,94128.75
2022-09-23T00:23:41.658Z,94136.16
2022-09-23T00:26:10.954Z,94125.53
2022-09-23T00:28:38.351Z,94118.06
2022-09-23T00:31:10.829Z,94125.69
2022-09-23T00:33:38.017Z,94124.50
2022-09-23T00:36:07.623Z,94126.44
2022-09-23T00:38:34.430Z,94117.53
2022-09-23T00:41:02.676Z,94125.44
2022-09-23T00:44:00.102Z,94116.94
2022-09-23T00:46:34.400Z,94111.09
2022-09-23T00:49:13.869Z,94115.41
2022-09-23T00:51:47.471Z,94108.44
2022-09-23T00:54:14.356Z,94113.41
2022-09-23T00:56:40.992Z,94112.16
2022-09-23T00:59:09.732Z,94111.75
2022-09-23T01:04:07.806Z,94105.94
2022-09-23T01:06:34.418Z,94107.03
2022-09-23T01:09:01.055Z,94096.09
2022-09-23T01:11:55.236Z,94098.84
2022-09-23T01:14:36.661Z,94103.53
2022-09-23T01:17:05.937Z,94103.44
2022-09-23T01:20:03.572Z,94092.31
2022-09-23T01:22:35.997Z,94091.47
2022-09-23T01:25:31.614Z,94090.75
2022-09-23T01:28:16.992Z,94098.81
2022-09-23T01:31:15.113Z,94088.91
2022-09-23T01:34:08.023Z,94085.41
2022-09-23T01:36:51.784Z,94086.94
2022-09-23T01:39:21.081Z,94088.13
2022-09-23T01:42:17.606Z,94094.69
2022-09-23T01:44:56.860Z,94080.72
2022-09-23T01:47:35.502Z,94087.19
2022-09-23T01:50:32.995Z,94090.25
2022-09-23T01:53:06.720Z,94081.94
2022-09-23T01:55:38.369Z,94089.66
2022-09-23T01:58:15.688Z,94084.16
2022-09-23T02:00:51.196Z,94080.63
2022-09-23T02:03:26.865Z,94081.38
2022-09-23T02:06:02.556Z,94079.34
2022-09-23T02:08:40.659Z,94074.97
2022-09-23T02:11:10.592Z,94077.28
2022-09-23T02:13:45.911Z,94074.34
2022-09-23T02:16:33.912Z,94072.03
2022-09-23T02:19:20.744Z,94071.72
2022-09-23T02:21:52.471Z,94074.41
2022-09-23T02:24:25.923Z,94073.59
2022-09-23T02:26:58.186Z,94068.09
2022-09-23T02:29:27.317Z,94066.84
2022-09-23T02:32:13.293Z,94067.22
2022-09-23T02:34:55.961Z,94062.66
2022-09-23T02:37:54.255Z,94059.09
2022-09-23T02:40:40.780Z,94058.00
2022-09-23T02:43:19.744Z,94055.59
2022-09-23T02:45:47.380Z,94055.16
2022-09-23T02:48:22.960Z,94058.97
2022-09-23T02:50:50.372Z,94053.34
2022-09-23T02:53:17.242Z,94047.09
2022-09-23T02:55:44.340Z,94048.59
2022-09-23T02:58:14.008Z,94049.31
2022-09-23T03:00:59.931Z,94042.03
2022-09-23T03:03:49.499Z,94041.91
2022-09-23T03:06:33.371Z,94036.94
2022-09-23T03:09:14.004Z,94044.72
2022-09-23T03:11:47.005Z,94045.50
2022-09-23T03:14:28.925Z,94042.38
2022-09-23T03:17:13.024Z,94043.13
2022-09-23T03:19:45.475Z,94047.94
2022-09-23T03:22:18.430Z,94040.63
2022-09-23T03:24:50.694Z,94042.09
2022-09-23T03:27:25.636Z,94047.88
2022-09-23T03:29:54.053Z,94040.94
2022-09-23T03:32:24.767Z,94049.50
2022-09-23T03:34:53.886Z,94044.09
2022-09-23T03:37:26.639Z,94044.44
2022-09-23T03:40:01.676Z,94036.72
2022-09-23T03:42:31.339Z,94040.75
2022-09-23T03:44:58.605Z,94039.69
2022-09-23T03:47:27.643Z,94035.72
2022-09-23T03:49:55.001Z,94036.84
2022-09-23T03:52:24.780Z,94043.44
2022-09-23T03:54:52.241Z,94038.50
2022-09-23T03:57:22.023Z,94043.47
2022-09-23T03:59:50.581Z,94027.22
2022-09-23T04:02:18.726Z,94035.66
2022-09-23T04:04:45.424Z,94037.88
2022-09-23T04:07:13.032Z,94031.94
2022-09-23T04:09:39.788Z,94036.19
2022-09-23T04:12:07.109Z,94033.31
2022-09-23T04:14:33.919Z,94032.63
2022-09-23T04:17:00.499Z,94026.09
2022-09-23T04:19:27.127Z,94021.25
2022-09-23T04:21:53.900Z,94027.66
2022-09-23T04:24:20.816Z,94030.78
2022-09-23T04:26:51.953Z,94024.25
2022-09-23T04:29:19.056Z,94031.63
2022-09-23T04:31:45.759Z,94025.84
2022-09-23T04:34:12.778Z,94030.34
2022-09-23T04:36:39.630Z,94020.69
2022-09-23T04:39:06.466Z,94025.00
2022-09-23T04:41:33.516Z,94031.25
2022-09-23T04:44:00.270Z,94029.25
2022-09-23T04:46:28.113Z,94025.50
2022-09-23T04:48:55.052Z,94026.94
2022-09-23T04:51:26.524Z,94029.09
2022-09-23T04:53:54.104Z,94028.38
2022-09-23T04:56:26.338Z,94027.94
2022-09-23T04:58:53.520Z,94029.44
2022-09-23T05:01:26.853Z,94031.44
2022-09-23T05:03:56.291Z,94030.22
2022-09-23T05:06:23.532Z,94027.41
2022-09-23T05:08:55.037Z,94036.78
2022-09-23T05:11:22.602Z,94037.50
2022-09-23T05:13:51.117Z,94033.16
2022-09-23T05:16:18.759Z,94039.66
2022-09-23T05:18:46.328Z,94034.44
2022-09-23T05:21:15.028Z,94028.59
2022-09-23T05:23:42.602Z,94037.88
2022-09-23T05:26:13.608Z,94038.00
2022-09-23T05:28:40.617Z,94033.06
2022-09-23T05:31:19.920Z,94039.81
2022-09-23T05:33:51.992Z,94037.28
2022-09-23T05:36:20.624Z,94037.34
2022-09-23T05:38:49.331Z,94045.09
2022-09-23T05:41:16.443Z,94058.97
2022-09-23T05:43:43.291Z,94048.97
2022-09-23T05:46:17.861Z,94054.19
2022-09-23T05:48:48.177Z,94051.06
2022-09-23T05:51:17.674Z,94048.66
2022-09-23T05:53:48.094Z,94048.28
2022-09-23T05:56:16.767Z,94049.38
2022-09-23T05:58:43.978Z,94043.06
2022-09-23T06:01:17.885Z,94055.56
2022-09-23T06:03:52.254Z,94046.47
2022-09-23T06:06:22.984Z,94040.59
2022-09-23T06:08:49.553Z,94041.47
2022-09-23T06:11:16.588Z,94041.19
2022-09-23T06:13:43.401Z,94040.97
2022-09-23T06:16:13.774Z,94039.97
2022-09-23T06:18:45.229Z,94042.22
2022-09-23T06:21:14.520Z,94042.22
2022-09-23T06:23:42.263Z,94039.81
2022-09-23T06:26:10.773Z,94044.50
2022-09-23T06:28:39.285Z,94039.03
2022-09-23T06:31:15.273Z,94027.84
2022-09-23T06:33:43.330Z,94038.53
2022-09-23T06:36:10.470Z,94040.44
2022-09-23T06:38:41.424Z,94029.53
2022-09-23T06:41:08.076Z,94028.44
2022-09-23T06:43:34.714Z,94037.38
2022-09-23T06:46:04.003Z,94031.94
2022-09-23T06:48:35.155Z,94030.41
2022-09-23T06:51:04.950Z,94029.25
2022-09-23T06:53:32.255Z,94028.47
2022-09-23T06:56:07.004Z,94024.97
2022-09-23T06:58:35.843Z,94034.00
2022-09-23T07:01:08.200Z,94030.91
2022-09-23T07:03:35.790Z,94035.19
2022-09-23T07:06:03.242Z,94031.16
2022-09-23T07:08:31.076Z,94029.88
2022-09-23T07:10:59.421Z,94025.25
2022-09-23T07:13:27.190Z,94033.31
2022-09-23T07:16:01.981Z,94027.47
2022-09-23T07:18:36.724Z,94028.09
2022-09-23T07:21:07.805Z,94020.00
2022-09-23T07:23:34.501Z,94015.22
2022-09-23T07:26:01.484Z,94018.25
2022-09-23T07:28:29.134Z,94015.03
2022-09-23T07:31:00.284Z,94004.81
2022-09-23T07:33:33.055Z,94016.88
2022-09-23T07:36:05.480Z,94015.47
2022-09-23T07:38:32.111Z,94014.69
2022-09-23T07:41:06.420Z,94016.84
2022-09-23T07:43:33.172Z,94016.03
2022-09-23T07:46:08.777Z,94011.81
2022-09-23T07:48:36.423Z,94015.75
2022-09-23T07:51:10.345Z,94006.53
2022-09-23T07:53:37.711Z,94012.28
2022-09-23T07:56:06.306Z,94016.03
2022-09-23T07:58:34.497Z,94019.53
2022-09-23T08:01:03.417Z,94025.56
2022-09-23T08:03:30.027Z,94022.22
2022-09-23T08:06:12.675Z,94023.47
2022-09-23T08:08:43.368Z,94027.00
2022-09-23T08:11:12.128Z,94020.66
2022-09-23T08:13:38.809Z,94019.13
2022-09-23T08:16:06.474Z,94025.47
2022-09-23T08:18:34.045Z,94035.69
2022-09-23T08:21:00.937Z,94035.69
2022-09-23T08:23:27.842Z,94034.59
2022-09-23T08:25:59.961Z,94035.00
2022-09-23T08:28:27.891Z,94033.81
2022-09-23T08:30:55.410Z,94026.16
2022-09-23T08:33:23.821Z,94030.97
2022-09-23T08:35:51.512Z,94030.44
2022-09-23T08:38:18.855Z,94027.19
2022-09-23T08:40:48.992Z,94032.06
2022-09-23T08:43:45.441Z,94035.09
2022-09-23T08:46:18.776Z,94034.94
2022-09-23T08:48:49.135Z,94037.56
2022-09-23T08:51:29.304Z,94027.91
2022-09-23T08:53:56.065Z,94025.75
2022-09-23T08:56:24.067Z,94029.91
2022-09-23T08:59:07.511Z,94024.22
2022-09-23T09:01:49.431Z,94021.34
2022-09-23T09:04:25.769Z,94017.91
2022-09-23T09:07:03.414Z,94014.38
2022-09-23T09:09:55.220Z,94012.44
2022-09-23T09:12:43.450Z,94014.09
2022-09-23T09:15:25.016Z,94009.13
2022-09-23T09:18:12.833Z,94008.25
2022-09-23T09:20:57.744Z,94006.59
2022-09-23T09:23:48.073Z,94001.19
2022-09-23T09:26:21.665Z,94000.66
2022-09-23T09:28:59.094Z,94000.88
2022-09-23T09:31:47.679Z,93993.47
2022-09-23T09:34:33.920Z,93986.25
2022-09-23T09:37:06.985Z,93983.75
2022-09-23T09:39:35.344Z,93984.50
2022-09-23T09:42:03.540Z,93976.03
2022-09-23T09:44:58.632Z,93974.44
2022-09-23T09:47:40.506Z,93968.31
2022-09-23T09:50:08.884Z,93975.53
2022-09-23T09:52:43.040Z,93962.88
2022-09-23T09:55:12.426Z,93959.91
2022-09-23T09:58:01.589Z,93955.03
2022-09-23T10:00:28.281Z,93949.69
2022-09-23T10:03:02.862Z,93945.09
2022-09-23T10:05:46.775Z,93952.81
2022-09-23T10:08:22.559Z,93948.78
2022-09-23T10:10:58.963Z,93949.16
2022-09-23T10:13:27.258Z,93941.47
2022-09-23T10:15:54.941Z,93943.78
2022-09-23T10:18:48.929Z,93945.81
2022-09-23T10:21:23.107Z,93951.72
2022-09-23T10:23:58.030Z,93945.16
2022-09-23T10:26:33.776Z,93938.84
2022-09-23T10:29:20.728Z,93943.25
2022-09-23T10:31:47.324Z,93934.84
2022-09-23T10:34:27.368Z,93932.81
2022-09-23T10:37:01.660Z,93946.22
2022-09-23T10:39:47.628Z,93942.16
2022-09-23T10:43:05.070Z,93939.00
2022-09-23T10:45:55.282Z,93931.59
2022-09-23T10:48:32.017Z,93931.59
2022-09-23T10:50:59.690Z,93931.00
2022-09-23T10:53:53.431Z,93923.06
2022-09-23T10:56:35.978Z,93923.34
2022-09-23T10:59:18.622Z,93917.38
2022-09-23T11:01:51.081Z,93917.50
2022-09-23T11:04:38.065Z,93918.09
2022-09-23T11:07:21.874Z,93913.16
2022-09-23T11:10:35.421Z,93912.13
2022-09-23T11:13:33.042Z,93902.78
2022-09-23T11:16:17.694Z,93899.38
2022-09-23T11:19:03.207Z,93898.06
2022-09-23T11:21:44.165Z,93897.84
2022-09-23T11:24:35.078Z,93900.75
2022-09-23T11:27:19.397Z,93893.91
2022-09-23T11:29:57.950Z,93896.72
2022-09-23T11:32:56.540Z,93890.59
2022-09-23T11:35:27.734Z,93886.81
2022-09-23T11:38:16.108Z,93891.28
2022-09-23T11:40:47.057Z,93885.25
2022-09-23T11:43:23.354Z,93885.38
2022-09-23T11:45:59.035Z,93881.44
2022-09-23T11:48:34.552Z,93884.38
2022-09-23T11:51:14.919Z,93887.56
2022-09-23T11:53:50.878Z,93884.25
2022-09-23T11:56:34.996Z,93879.09
2022-09-23T11:59:13.441Z,93878.53
2022-09-23T12:01:45.803Z,93869.25
2022-09-23T12:04:24.645Z,93864.44
2022-09-23T12:07:01.094Z,93873.47
2022-09-23T12:09:58.809Z,93866.78
2022-09-23T12:12:38.533Z,93875.44
2022-09-23T12:15:16.975Z,93862.16
2022-09-23T12:17:43.529Z,93858.53
2022-09-23T12:20:37.880Z,93860.44
2022-09-23T12:23:10.836Z,93860.44
2022-09-23T12:26:02.096Z,93849.66
2022-09-23T12:28:45.127Z,93856.97
2022-09-23T12:31:15.567Z,93857.00
2022-09-23T12:33:53.577Z,93847.81
2022-09-23T12:36:35.371Z,93849.28
2022-09-23T12:39:15.263Z,93844.50
2022-09-23T12:41:47.828Z,93843.88
2022-09-23T12:44:41.233Z,93844.75
2022-09-23T12:47:21.056Z,93837.66
2022-09-23T12:49:48.446Z,93840.44
2022-09-23T12:52:18.123Z,93839.75
2022-09-23T12:54:50.139Z,93836.13
2022-09-23T12:57:34.843Z,93826.00
2022-09-23T13:00:12.593Z,93829.66
2022-09-23T13:03:18.604Z,93812.75
2022-09-23T13:06:11.542Z,93822.75
2022-09-23T13:08:40.404Z,93820.53
2022-09-23T13:11:19.485Z,93822.66
2022-09-23T13:13:49.837Z,93819.31
2022-09-23T13:16:39.357Z,93825.56
2022-09-23T13:19:26.939Z,93825.25
2022-09-23T13:21:53.484Z,93824.69
2022-09-23T13:24:47.580Z,93824.69
2022-09-23T13:27:21.952Z,93810.81
2022-09-23T13:30:13.874Z,93811.31
2022-09-23T13:32:48.487Z,93818.56
2022-09-23T13:35:23.218Z,93813.75
2022-09-23T13:37:50.447Z,93810.56
2022-09-23T13:40:21.570Z,93814.97
2022-09-23T13:42:56.883Z,93815.63
2022-09-23T13:45:25.259Z,93813.72
2022-09-23T13:47:54.624Z,93812.19
2022-09-23T13:50:24.760Z,93808.56
2022-09-23T13:52:57.210Z,93805.06
2022-09-23T13:55:26.392Z,93811.81
2022-09-23T13:58:17.277Z,93814.69
2022-09-23T14:00:44.472Z,93809.81
2022-09-23T14:03:36.284Z,93797.28
2022-09-23T14:06:12.932Z,93796.22
2022-09-23T14:08:44.050Z,93795.44
2022-09-23T14:11:18.711Z,93797.00
2022-09-23T14:13:48.795Z,93789.19
2022-09-23T14:16:16.579Z,93786.91
2022-09-23T14:18:45.667Z,93787.78
2022-09-23T14:21:38.702Z,93783.06
2022-09-23T14:24:12.178Z,93778.19
2022-09-23T14:26:40.145Z,93776.75
2022-09-23T14:29:17.038Z,93778.38
2022-09-23T14:32:00.677Z,93778.72
2022-09-23T14:34:51.161Z,93772.63
2022-09-23T14:37:57.945Z,93775.19
2022-09-23T14:40:28.932Z,93770.81
2022-09-23T14:43:07.454Z,93770.22
2022-09-23T14:45:37.293Z,93761.09
2022-09-23T14:48:10.221Z,93772.78
2022-09-23T14:50:39.509Z,93758.31
2022-09-23T14:53:33.001Z,93756.34
2022-09-23T14:56:08.500Z,93753.44
2022-09-23T14:58:53.055Z,93758.25
2022-09-23T15:01:32.576Z,93758.59
2022-09-23T15:04:30.876Z,93762.66
2022-09-23T15:07:16.873Z,93762.53
2022-09-23T15:09:45.111Z,93760.31
2022-09-23T15:12:14.690Z,93754.31
2022-09-23T15:14:50.723Z,93769.03
2022-09-23T15:17:23.425Z,93761.06
2022-09-23T15:19:57.121Z,93761.19
2022-09-23T15:22:25.158Z,93765.22
2022-09-23T15:24:54.065Z,93760.78
2022-09-23T15:27:34.547Z,93757.06
2022-09-23T15:30:14.712Z,93754.00
2022-09-23T15:32:45.700Z,93752.94
2022-09-23T15:35:18.989Z,93757.06
2022-09-23T15:37:47.267Z,93749.59
2022-09-23T15:40:18.898Z,93751.84
2022-09-23T15:42:51.148Z,93756.94
2022-09-23T15:45:42.900Z,93749.38
2022-09-23T15:48:23.014Z,93751.06
2022-09-23T15:50:51.039Z,93744.63
2022-09-23T15:53:21.781Z,93750.06
2022-09-23T15:55:52.590Z,93746.97
2022-09-23T15:58:20.496Z,93741.63
2022-09-23T16:00:55.969Z,93744.22
2022-09-23T16:03:30.220Z,93736.06
2022-09-23T16:06:00.589Z,93743.41
2022-09-23T16:08:28.590Z,93743.53
2022-09-23T16:10:55.535Z,93744.50
2022-09-23T16:13:22.251Z,93744.22
2022-09-23T16:15:48.976Z,93744.38
2022-09-23T16:18:15.681Z,93743.31
2022-09-23T16:20:45.000Z,93745.03
2022-09-23T16:23:34.118Z,93750.31
2022-09-23T16:26:29.597Z,93739.69
2022-09-23T16:28:58.035Z,93748.50
2022-09-23T16:31:25.851Z,93751.28
2022-09-23T16:33:53.517Z,93754.78
2022-09-23T16:36:31.053Z,93756.34
2022-09-23T16:38:59.898Z,93752.13
2022-09-23T16:41:29.299Z,93752.75
2022-09-23T16:43:56.299Z,93747.50
2022-09-23T16:46:27.049Z,93757.16
2022-09-23T16:48:57.315Z,93744.03
2022-09-23T16:51:27.301Z,93745.03
2022-09-23T16:53:55.948Z,93745.69
2022-09-23T16:56:28.420Z,93745.84
2022-09-23T16:58:56.238Z,93753.88
2022-09-23T17:01:45.054Z,93760.00
2022-09-23T17:04:13.043Z,93760.50
2022-09-23T17:06:49.029Z,93759.97
2022-09-23T17:09:18.022Z,93757.22
2022-09-23T17:11:47.733Z,93753.25
2022-09-23T17:14:17.461Z,93759.97
2022-09-23T17:16:44.194Z,93752.41
2022-09-23T17:19:12.249Z,93763.88
2022-09-23T17:21:39.274Z,93757.06
2022-09-23T17:24:08.856Z,93760.25
2022-09-23T17:26:35.511Z,93758.16
2022-09-23T17:29:02.168Z,93757.53
2022-09-23T17:31:29.093Z,93760.53
2022-09-23T17:33:55.892Z,93763.59
2022-09-23T17:36:22.564Z,93764.50
2022-09-23T17:39:02.267Z,93765.69
2022-09-23T17:41:29.697Z,93767.84
2022-09-23T17:43:58.466Z,93763.22
2022-09-23T17:46:25.083Z,93770.78
2022-09-23T17:48:55.447Z,93773.69
2022-09-23T17:51:22.733Z,93768.03
2022-09-23T17:53:49.952Z,93764.94
2022-09-23T17:56:26.625Z,93766.41
2022-09-23T17:58:54.160Z,93768.03
2022-09-23T18:01:23.321Z,93768.53
2022-09-23T18:03:58.019Z,93767.94
2022-09-23T18:06:27.276Z,93763.28
2022-09-23T18:08:55.878Z,93769.00
2022-09-23T18:11:23.600Z,93771.16
2022-09-23T18:13:53.220Z,93774.00
2022-09-23T18:16:21.597Z,93768.84
2022-09-23T18:18:52.621Z,93761.25
2022-09-23T18:21:20.129Z,93758.59
2022-09-23T18:23:47.453Z,93761.69
2022-09-23T18:26:19.763Z,93767.28
2022-09-23T18:28:47.926Z,93768.00
2022-09-23T18:31:15.749Z,93758.38
2022-09-23T18:33:42.537Z,93759.38
2022-09-23T18:36:09.872Z,93762.41
2022-09-23T18:38:36.570Z,93752.16
2022-09-23T18:41:03.364Z,93761.56
2022-09-23T18:43:37.523Z,93754.94
2022-09-23T18:46:12.250Z,93757.44
2022-09-23T18:48:57.757Z,93755.56
2022-09-23T18:51:26.034Z,93757.72
2022-09-23T18:53:57.537Z,93760.56
2022-09-23T18:56:29.776Z,93764.75
2022-09-23T18:58:56.549Z,93769.38
2022-09-23T19:01:23.864Z,93772.25
2022-09-23T19:03:56.122Z,93770.09
2022-09-23T19:06:23.202Z,93760.25
2022-09-23T19:08:52.060Z,93763.06
2022-09-23T19:11:19.907Z,93756.72
2022-09-23T19:13:46.754Z,93755.34
2022-09-23T19:16:15.539Z,93764.59
2022-09-23T19:18:46.329Z,93753.72
2022-09-23T19:21:14.948Z,93747.22
2022-09-23T19:23:47.574Z,93753.16
2022-09-23T19:26:17.124Z,93767.84
2022-09-23T19:28:49.094Z,93768.25
2022-09-23T19:31:22.931Z,93765.50
2022-09-23T19:33:58.432Z,93760.91
2022-09-23T19:36:33.779Z,93761.53
2022-09-23T19:39:03.990Z,93762.31
2022-09-23T19:41:32.203Z,93754.06
2022-09-23T19:44:03.172Z,93757.13
2022-09-23T19:46:33.681Z,93756.03
2022-09-23T19:49:01.102Z,93757.94
2022-09-23T19:51:28.225Z,93745.53
2022-09-23T19:53:54.941Z,93746.94
2022-09-23T19:56:21.806Z,93736.81
2022-09-23T19:58:54.148Z,93742.19
2022-09-23T20:01:22.140Z,93736.28
2022-09-23T20:03:49.597Z,93728.56
2022-09-23T20:06:17.741Z,93734.75
2022-09-23T20:08:44.901Z,93732.34
2022-09-23T20:11:27.623Z,93730.69
2022-09-23T20:14:01.659Z,93720.31
2022-09-23T20:16:32.362Z,93733.09
2022-09-23T20:19:00.876Z,93735.91
2022-09-23T20:21:29.211Z,93735.16
2022-09-23T20:23:57.032Z,93734.88
2022-09-23T20:26:42.956Z,93735.84
2022-09-23T20:29:10.696Z,93734.16
2022-09-23T20:31:37.928Z,93726.91
2022-09-23T20:34:06.921Z,93720.78
2022-09-23T20:36:35.004Z,93716.16
2022-09-23T20:39:05.734Z,93715.34
2022-09-23T20:41:36.589Z,93725.69
2022-09-23T20:44:05.864Z,93718.31
2022-09-23T20:46:32.628Z,93731.19
2022-09-23T20:48:59.639Z,93723.22
2022-09-23T20:51:26.362Z,93715.31
2022-09-23T20:53:53.162Z,93720.38
2022-09-23T20:56:21.436Z,93723.06
2022-09-23T20:58:50.365Z,93721.59
2022-09-23T21:01:17.893Z,93716.97
2022-09-23T21:03:46.971Z,93722.75
2022-09-23T21:06:15.432Z,93730.47
2022-09-23T21:08:43.478Z,93724.88
2022-09-23T21:11:15.828Z,93727.25
2022-09-23T21:13:50.478Z,93725.34
2022-09-23T21:16:19.782Z,93731.53
2022-09-23T21:18:47.999Z,93730.34
2022-09-23T21:21:15.186Z,93727.59
2022-09-23T21:23:43.478Z,93726.31
2022-09-23T21:26:28.114Z,93728.97
2022-09-23T21:28:58.727Z,93728.13
2022-09-23T21:31:27.959Z,93731.59
2022-09-23T21:33:56.803Z,93729.06
2022-09-23T21:36:24.584Z,93725.97
2022-09-23T21:38:51.658Z,93730.59
2022-09-23T21:41:19.373Z,93737.34
2022-09-23T21:43:46.056Z,93740.66
2022-09-23T21:46:14.748Z,93730.09
2022-09-23T21:48:42.619Z,93739.13
2022-09-23T21:51:13.273Z,93726.88
2022-09-23T21:53:40.891Z,93725.75
2022-09-23T21:56:09.838Z,93723.00
2022-09-23T21:58:37.804Z,93725.25
2022-09-23T22:01:16.087Z,93721.69
2022-09-23T22:03:44.290Z,93723.72
2022-09-23T22:06:13.647Z,93724.69
2022-09-23T22:08:42.968Z,93731.00
2022-09-23T22:11:31.677Z,93726.38
2022-09-23T22:14:00.482Z,93726.06
2022-09-23T22:16:31.298Z,93729.19
2022-09-23T22:19:00.582Z,93736.03
2022-09-23T22:21:29.654Z,93733.78
2022-09-23T22:23:58.359Z,93729.84
2022-09-23T22:26:25.325Z,93735.03
2022-09-23T22:29:10.428Z,93728.81
2022-09-23T22:31:55.570Z,93728.09
2022-09-23T22:34:48.555Z,93729.78
2022-09-23T22:37:15.695Z,93721.56
2022-09-23T22:39:42.276Z,93727.97
2022-09-23T22:42:08.864Z,93724.94
2022-09-23T22:44:35.645Z,93715.94
2022-09-23T22:47:02.304Z,93716.34
2022-09-23T22:49:32.026Z,93722.19
2022-09-23T22:51:59.363Z,93722.63
2022-09-23T22:54:33.405Z,93717.28
2022-09-23T22:57:03.165Z,93714.84
2022-09-23T22:59:30.074Z,93706.72
2022-09-23T23:01:59.731Z,93700.56
2022-09-23T23:04:26.997Z,93706.41
2022-09-23T23:06:53.615Z,93704.44
2022-09-23T23:09:20.223Z,93694.63
2022-09-23T23:11:47.304Z,93698.09
2022-09-23T23:14:17.161Z,93692.59
2022-09-23T23:16:46.137Z,93692.16
2022-09-23T23:19:16.471Z,93691.22
2022-09-23T23:21:43.622Z,93690.50
2022-09-23T23:24:15.313Z,93691.75
2022-09-23T23:26:42.555Z,93688.06
2022-09-23T23:29:11.026Z,93689.97
2022-09-23T23:31:38.344Z,93683.16
2022-09-23T23:34:05.919Z,93683.53
2022-09-23T23:36:32.577Z,93680.03
2022-09-23T23:38:59.211Z,93681.09
2022-09-23T23:41:25.944Z,93679.63
2022-09-23T23:43:58.376Z,93679.13
2022-09-23T23:46:27.502Z,93672.84
2022-09-23T23:48:55.484Z,93680.50
2022-09-23T23:51:23.093Z,93679.13
2022-09-23T23:53:49.737Z,93678.66
2022-09-23T23:56:19.358Z,93681.38
2022-09-23T23:58:46.214Z,93686.81
